Time;durP1;ratioP1;P1;durP2;ratioP2;P2;SDS_P1;SDS_P2;PMS_P1;PMS_P2;Temp;Humidity;BMP_temperature;BMP_pressure;BME280_temperature;BME280_humidity;BME280_pressure;Samples;Min_cycle;Max_cycle;Signal;HPM_P1;HPM_P2
2022/07/21 00:02:12;;;;;;;8.93;6.32;;;24.60;58.90;;;;;;4955950;28;20134;-73
2022/07/21 00:04:38;;;;;;;7.10;5.80;;;24.50;59.10;;;;;;4954878;28;20042;-71
2022/07/21 00:07:03;;;;;;;9.05;6.25;;;24.40;59.30;;;;;;4961307;28;20088;-70
2022/07/21 00:09:29;;;;;;;7.07;5.97;;;24.40;59.40;;;;;;4972792;28;20038;-70
2022/07/21 00:11:55;;;;;;;7.90;6.30;;;24.30;59.60;;;;;;4995585;28;20057;-72
2022/07/21 00:14:20;;;;;;;8.20;5.70;;;24.20;59.80;;;;;;4988767;28;20131;-71
2022/07/21 00:16:46;;;;;;;8.90;6.63;;;24.20;59.80;;;;;;4979602;28;20038;-70
2022/07/21 00:19:12;;;;;;;9.50;6.20;;;24.10;59.90;;;;;;4997346;28;20051;-73
2022/07/21 00:21:37;;;;;;;8.00;5.97;;;24.00;60.20;;;;;;4966688;28;20726;-70
2022/07/21 00:24:03;;;;;;;8.60;6.95;;;24.00;60.50;;;;;;4983803;28;20034;-71
2022/07/21 00:26:29;;;;;;;7.72;6.07;;;23.90;60.70;;;;;;4954217;28;20120;-70
2022/07/21 00:28:54;;;;;;;8.38;6.03;;;23.90;61.10;;;;;;4943341;28;20129;-71
2022/07/21 00:31:20;;;;;;;9.38;6.78;;;23.80;61.40;;;;;;4968836;28;20101;-71
2022/07/21 00:33:46;;;;;;;9.25;6.70;;;23.80;61.50;;;;;;4984256;28;20046;-71
2022/07/21 00:36:11;;;;;;;8.25;6.32;;;23.80;61.60;;;;;;4972811;28;20042;-70
2022/07/21 00:38:37;;;;;;;8.57;6.90;;;23.80;61.70;;;;;;4976574;28;20534;-71
2022/07/21 00:41:02;;;;;;;8.77;6.50;;;23.80;61.60;;;;;;4972218;28;21667;-71
2022/07/21 00:43:28;;;;;;;7.85;6.35;;;23.70;61.80;;;;;;4973325;28;20040;-70
2022/07/21 00:45:56;;;;;;;8.07;6.05;;;23.70;61.60;;;;;;4984867;28;20038;-71
2022/07/21 00:48:22;;;;;;;8.75;7.22;;;23.70;61.60;;;;;;4927718;28;20403;-72
2022/07/21 00:50:48;;;;;;;7.10;5.97;;;23.70;61.60;;;;;;4952951;28;20044;-71
2022/07/21 00:53:13;;;;;;;9.05;6.57;;;23.80;61.70;;;;;;4969038;28;20482;-71
2022/07/21 00:55:41;;;;;;;9.00;7.03;;;23.70;61.70;;;;;;4942402;28;20456;-70
2022/07/21 00:58:06;;;;;;;9.63;7.38;;;23.70;61.80;;;;;;4950517;28;20185;-71
2022/07/21 01:00:32;;;;;;;9.95;6.32;;;23.70;62.00;;;;;;4970179;28;20719;-71
2022/07/21 01:02:57;;;;;;;9.60;7.10;;;23.70;62.10;;;;;;4948645;28;20038;-72
2022/07/21 01:05:23;;;;;;;12.43;7.65;;;23.70;62.40;;;;;;4966330;28;20106;-71
2022/07/21 01:07:50;;;;;;;7.75;6.43;;;23.70;62.30;;;;;;4944562;28;20035;-71
2022/07/21 01:10:16;;;;;;;10.23;6.85;;;23.60;62.40;;;;;;4948679;28;20092;-71
2022/07/21 01:12:42;;;;;;;14.75;7.82;;;23.60;62.40;;;;;;4946188;28;20153;-72
2022/07/21 01:15:09;;;;;;;12.25;6.88;;;23.60;62.50;;;;;;4935034;28;20113;-72
2022/07/21 01:17:34;;;;;;;9.55;6.88;;;23.60;62.60;;;;;;4977869;28;20034;-71
2022/07/21 01:20:05;;;;;;;8.75;6.88;;;23.50;62.50;;;;;;4958134;28;20096;-72
2022/07/21 01:22:32;;;;;;;7.95;6.18;;;23.50;62.90;;;;;;4949576;28;20146;-70
2022/07/21 01:24:57;;;;;;;7.63;6.68;;;23.50;62.60;;;;;;4964267;28;20042;-70
2022/07/21 01:27:27;;;;;;;9.68;7.20;;;23.50;62.70;;;;;;4956113;28;20043;-72
2022/07/21 01:29:53;;;;;;;7.00;6.32;;;23.40;62.50;;;;;;4935016;28;20039;-70
2022/07/21 01:32:19;;;;;;;10.93;7.28;;;23.40;62.60;;;;;;4951066;28;20419;-71
2022/07/21 01:34:44;;;;;;;7.63;6.50;;;23.40;62.60;;;;;;4930779;28;20085;-71
2022/07/21 01:37:10;;;;;;;8.00;6.95;;;23.40;62.70;;;;;;4958372;28;20412;-71
2022/07/21 01:42:19;;;;;;;11.45;7.70;;;23.30;62.90;;;;;;4969235;28;20546;-71
2022/07/21 01:44:45;;;;;;;10.80;7.82;;;23.30;62.90;;;;;;4987717;28;20035;-71
2022/07/21 01:47:10;;;;;;;11.43;7.95;;;23.30;63.20;;;;;;4994656;28;20555;-71
2022/07/21 01:49:36;;;;;;;12.95;9.13;;;23.20;63.50;;;;;;4977077;28;20501;-72
2022/07/21 01:52:01;;;;;;;12.15;8.65;;;23.20;64.00;;;;;;4981544;28;20030;-70
2022/07/21 01:54:27;;;;;;;10.05;8.10;;;23.10;64.30;;;;;;4970428;28;20050;-71
2022/07/21 01:56:52;;;;;;;10.73;7.63;;;23.00;64.50;;;;;;4986107;28;20422;-71
2022/07/21 01:59:18;;;;;;;11.35;8.50;;;23.00;64.60;;;;;;4978956;28;20044;-72
2022/07/21 02:01:43;;;;;;;11.73;8.13;;;23.00;64.80;;;;;;4967897;28;20042;-70
2022/07/21 02:04:09;;;;;;;11.63;7.65;;;22.90;64.80;;;;;;4967577;28;20576;-71
2022/07/21 02:06:35;;;;;;;13.00;8.68;;;22.90;64.90;;;;;;4975042;28;20464;-71
2022/07/21 02:09:00;;;;;;;9.45;7.60;;;22.90;65.20;;;;;;4967301;28;20395;-71
2022/07/21 02:11:26;;;;;;;11.02;8.55;;;22.90;65.10;;;;;;4970610;28;20089;-71
2022/07/21 02:13:51;;;;;;;9.88;7.95;;;22.80;65.10;;;;;;4981210;28;20085;-71
2022/07/21 02:16:17;;;;;;;10.48;8.02;;;22.80;65.60;;;;;;4980849;28;20055;-72
2022/07/21 02:18:43;;;;;;;11.05;7.40;;;22.80;65.40;;;;;;4974278;28;20034;-70
2022/07/21 02:21:09;;;;;;;9.30;7.40;;;22.80;65.30;;;;;;4975472;28;20073;-71
2022/07/21 02:23:34;;;;;;;11.32;7.53;;;22.70;65.10;;;;;;4970876;28;20612;-71
2022/07/21 02:26:00;;;;;;;10.25;7.18;;;22.70;65.20;;;;;;4973091;28;20079;-72
2022/07/21 02:28:26;;;;;;;7.78;6.82;;;22.70;65.10;;;;;;4972966;28;20661;-72
2022/07/21 02:30:52;;;;;;;10.80;6.75;;;22.70;65.00;;;;;;4965583;28;20122;-72
2022/07/21 02:33:17;;;;;;;9.40;7.35;;;22.70;65.00;;;;;;4984563;28;20037;-72
2022/07/21 02:35:43;;;;;;;10.13;7.60;;;22.70;65.00;;;;;;4965793;28;20628;-70
2022/07/21 02:38:09;;;;;;;8.48;7.30;;;22.70;65.10;;;;;;4974120;28;20125;-71
2022/07/21 02:40:34;;;;;;;12.07;7.47;;;22.70;65.20;;;;;;4972737;28;21518;-71
2022/07/21 02:43:00;;;;;;;14.10;8.05;;;22.60;65.10;;;;;;4974702;28;20042;-72
2022/07/21 02:45:25;;;;;;;8.15;6.72;;;22.60;65.20;;;;;;4988752;28;20053;-71
2022/07/21 02:47:53;;;;;;;9.73;7.28;;;22.60;65.30;;;;;;4985669;28;20037;-71
2022/07/21 02:50:19;;;;;;;8.70;7.00;;;22.60;65.40;;;;;;4978324;28;20089;-71
2022/07/21 02:52:45;;;;;;;11.23;7.28;;;22.50;65.40;;;;;;4940044;28;20065;-71
2022/07/21 02:55:11;;;;;;;12.07;8.10;;;22.50;65.50;;;;;;4962866;28;20054;-71
2022/07/21 02:57:36;;;;;;;8.73;7.30;;;22.50;65.90;;;;;;4989123;28;20037;-71
2022/07/21 03:00:04;;;;;;;9.68;7.40;;;22.40;66.10;;;;;;4987631;28;20034;-73
2022/07/21 03:02:30;;;;;;;14.20;7.25;;;22.40;66.40;;;;;;4977417;28;20459;-71
2022/07/21 03:04:55;;;;;;;8.35;7.32;;;22.40;66.40;;;;;;4982561;28;20027;-72
2022/07/21 03:07:21;;;;;;;9.43;7.60;;;22.40;66.50;;;;;;4964883;28;20034;-72
2022/07/21 03:09:46;;;;;;;11.82;7.35;;;22.30;66.40;;;;;;4990795;28;20043;-72
2022/07/21 03:12:12;;;;;;;10.48;6.90;;;22.30;66.40;;;;;;4962057;28;20041;-73
2022/07/21 03:14:37;;;;;;;9.00;7.10;;;22.30;66.20;;;;;;4943067;28;20058;-71
2022/07/21 03:17:03;;;;;;;9.55;7.22;;;22.30;66.20;;;;;;4978759;28;20042;-71
2022/07/21 03:19:28;;;;;;;7.70;6.60;;;22.30;66.20;;;;;;4963253;28;20038;-72
2022/07/21 03:21:54;;;;;;;10.02;7.03;;;22.30;66.20;;;;;;4955744;28;20097;-72
2022/07/21 03:24:19;;;;;;;8.65;6.72;;;22.30;66.20;;;;;;4963144;28;20034;-72
2022/07/21 03:26:45;;;;;;;10.55;7.63;;;22.30;66.20;;;;;;4932939;28;20455;-70
2022/07/21 03:29:11;;;;;;;7.93;6.75;;;22.30;66.30;;;;;;4945138;28;20048;-71
2022/07/21 03:31:36;;;;;;;7.53;6.30;;;22.30;66.20;;;;;;4954260;28;20023;-71
2022/07/21 03:34:02;;;;;;;17.20;6.95;;;22.30;66.40;;;;;;4965059;28;20026;-71
2022/07/21 03:36:27;;;;;;;10.73;6.45;;;22.30;66.40;;;;;;4948562;28;20050;-71
2022/07/21 03:38:53;;;;;;;10.75;6.90;;;22.20;66.40;;;;;;4970522;28;20042;-73
2022/07/21 03:41:18;;;;;;;9.27;6.70;;;22.30;66.50;;;;;;4948086;28;20039;-71
2022/07/21 03:43:44;;;;;;;10.95;7.00;;;22.30;66.50;;;;;;4944371;28;20035;-71
2022/07/21 03:46:09;;;;;;;8.75;6.95;;;22.20;66.50;;;;;;4945049;28;20104;-72
2022/07/21 03:48:35;;;;;;;11.02;7.00;;;22.20;66.40;;;;;;4944416;28;20038;-72
2022/07/21 03:51:00;;;;;;;8.63;7.18;;;22.20;66.60;;;;;;4958115;28;20029;-71
2022/07/21 03:53:26;;;;;;;11.63;7.22;;;22.20;66.80;;;;;;4959175;28;20039;-71
2022/07/21 03:55:52;;;;;;;7.53;6.18;;;22.20;66.70;;;;;;4950703;28;20134;-72
2022/07/21 03:58:17;;;;;;;11.77;7.28;;;22.20;66.70;;;;;;4965665;28;20030;-71
2022/07/21 04:00:44;;;;;;;7.40;6.18;;;22.30;66.70;;;;;;4960413;28;20067;-70
2022/07/21 04:03:09;;;;;;;7.97;7.13;;;22.20;66.80;;;;;;4961587;28;20097;-71
2022/07/21 04:05:35;;;;;;;9.48;7.00;;;22.20;66.80;;;;;;4962439;28;20604;-70
2022/07/21 04:08:01;;;;;;;11.45;6.70;;;22.20;66.80;;;;;;4942449;28;20496;-72
2022/07/21 04:10:28;;;;;;;8.93;6.63;;;22.20;66.80;;;;;;4963097;28;20085;-71
2022/07/21 04:12:57;;;;;;;8.43;6.72;;;22.20;66.70;;;;;;4954111;28;20043;-71
2022/07/21 04:15:23;;;;;;;8.10;7.20;;;22.20;66.80;;;;;;4960570;28;20048;-71
2022/07/21 04:17:48;;;;;;;10.40;7.60;;;22.30;66.80;;;;;;4961106;28;20140;-71
2022/07/21 04:20:14;;;;;;;12.30;7.30;;;22.20;67.00;;;;;;4954052;28;20031;-71
2022/07/21 04:22:41;;;;;;;8.90;6.95;;;22.20;66.90;;;;;;4935922;28;20041;-71
2022/07/21 04:25:07;;;;;;;10.55;6.93;;;22.20;67.00;;;;;;4971606;28;20033;-71
2022/07/21 04:27:33;;;;;;;10.90;6.82;;;22.20;67.00;;;;;;4943649;28;20041;-71
2022/07/21 04:29:58;;;;;;;9.63;6.93;;;22.20;66.90;;;;;;4952276;28;22382;-71
2022/07/21 04:32:24;;;;;;;12.50;6.80;;;22.20;67.00;;;;;;4939968;28;20082;-72
2022/07/21 04:34:49;;;;;;;10.43;7.13;;;22.20;66.90;;;;;;4950478;28;20034;-71
2022/07/21 04:37:15;;;;;;;7.57;6.88;;;22.20;67.20;;;;;;4943737;28;20121;-71
2022/07/21 04:39:40;;;;;;;12.00;7.43;;;22.20;67.20;;;;;;4958520;28;20055;-71
2022/07/21 04:42:06;;;;;;;10.23;7.90;;;22.20;67.30;;;;;;4945003;28;20096;-71
2022/07/21 04:44:32;;;;;;;7.93;7.18;;;22.20;67.30;;;;;;4963777;28;20035;-71
2022/07/21 04:46:57;;;;;;;9.88;7.22;;;22.10;67.50;;;;;;4960910;28;20028;-72
2022/07/21 04:49:23;;;;;;;10.05;7.68;;;22.10;67.50;;;;;;4939890;28;20090;-71
2022/07/21 04:51:48;;;;;;;11.45;7.20;;;22.10;67.60;;;;;;4935287;28;20086;-71
2022/07/21 04:54:14;;;;;;;10.90;8.05;;;22.10;67.60;;;;;;4972617;28;20047;-71
2022/07/21 04:56:41;;;;;;;11.73;8.57;;;22.10;67.80;;;;;;4962755;28;20046;-72
2022/07/21 04:59:06;;;;;;;8.38;6.38;;;22.10;68.00;;;;;;4953591;28;20066;-72
2022/07/21 05:01:32;;;;;;;11.95;7.35;;;22.10;68.20;;;;;;4962573;28;20059;-73
2022/07/21 05:03:57;;;;;;;11.13;7.25;;;22.10;68.00;;;;;;4950669;28;20045;-72
2022/07/21 05:06:23;;;;;;;9.32;7.05;;;22.10;68.10;;;;;;4965515;28;20556;-72
2022/07/21 05:08:48;;;;;;;11.38;8.32;;;22.10;68.10;;;;;;4929939;28;20054;-72
2022/07/21 05:11:14;;;;;;;13.02;9.15;;;22.10;68.10;;;;;;4978331;28;20105;-71
2022/07/21 05:13:39;;;;;;;8.63;7.40;;;22.10;68.30;;;;;;4974568;28;20039;-72
2022/07/21 05:16:05;;;;;;;8.48;7.47;;;22.10;68.50;;;;;;4960872;28;20044;-71
2022/07/21 05:18:30;;;;;;;8.63;7.43;;;22.10;69.30;;;;;;4942605;28;20039;-72
2022/07/21 05:20:56;;;;;;;10.65;7.68;;;22.10;68.60;;;;;;4958546;28;20041;-71
2022/07/21 05:23:22;;;;;;;9.93;7.13;;;22.10;68.70;;;;;;4945902;28;20034;-72
2022/07/21 05:25:47;;;;;;;10.77;8.13;;;22.10;68.50;;;;;;4987311;28;20806;-72
2022/07/21 05:28:13;;;;;;;17.88;9.50;;;22.10;68.50;;;;;;4976529;28;20030;-72
2022/07/21 05:30:38;;;;;;;9.73;7.32;;;22.10;68.80;;;;;;4968943;28;20034;-72
2022/07/21 05:33:04;;;;;;;11.07;8.20;;;22.10;69.10;;;;;;4951445;28;20031;-72
2022/07/21 05:35:30;;;;;;;12.35;8.77;;;22.20;69.20;;;;;;4968358;28;20041;-73
2022/07/21 05:37:56;;;;;;;12.75;9.38;;;22.20;69.30;;;;;;4975133;28;20526;-71
2022/07/21 05:40:21;;;;;;;11.70;7.65;;;22.20;69.30;;;;;;4977984;28;20116;-72
2022/07/21 05:42:47;;;;;;;10.77;8.55;;;22.20;69.40;;;;;;4951384;28;20045;-71
2022/07/21 05:45:12;;;;;;;14.15;8.75;;;22.30;69.40;;;;;;4934484;28;20046;-72
2022/07/21 05:47:38;;;;;;;8.38;7.40;;;22.40;69.50;;;;;;4970168;28;20100;-73
2022/07/21 05:50:04;;;;;;;9.57;7.00;;;22.40;69.70;;;;;;4985533;28;20065;-72
2022/07/21 05:52:30;;;;;;;9.05;7.20;;;22.50;69.60;;;;;;4978049;28;20128;-72
2022/07/21 05:54:55;;;;;;;10.65;6.78;;;22.50;69.50;;;;;;4974422;28;20042;-72
2022/07/21 05:57:21;;;;;;;7.95;6.85;;;22.60;69.50;;;;;;4977002;28;20041;-73
2022/07/21 05:59:46;;;;;;;8.35;5.95;;;22.60;69.40;;;;;;4946352;28;20035;-72
2022/07/21 06:02:12;;;;;;;8.30;6.00;;;22.60;69.30;;;;;;4940911;28;20035;-73
2022/07/21 06:04:37;;;;;;;7.53;6.63;;;22.60;69.10;;;;;;4940813;28;20901;-72
2022/07/21 06:07:03;;;;;;;8.25;6.40;;;22.60;68.90;;;;;;4927074;28;20093;-72
2022/07/21 06:09:28;;;;;;;6.80;6.10;;;22.60;68.90;;;;;;4967501;28;20046;-72
2022/07/21 06:11:54;;;;;;;8.23;6.25;;;22.70;68.70;;;;;;4987167;28;20688;-72
2022/07/21 06:14:20;;;;;;;6.93;5.45;;;22.60;68.60;;;;;;4994560;28;20503;-72
2022/07/21 06:16:45;;;;;;;6.28;5.35;;;22.60;69.10;;;;;;4963503;28;20034;-73
2022/07/21 06:19:11;;;;;;;7.20;5.35;;;22.70;68.30;;;;;;4944489;28;20102;-74
2022/07/21 06:21:36;;;;;;;6.63;5.45;;;22.60;68.00;;;;;;4951664;28;20118;-72
2022/07/21 06:24:02;;;;;;;6.93;6.10;;;22.70;68.00;;;;;;4944610;28;20073;-73
2022/07/21 06:26:27;;;;;;;6.65;5.45;;;22.70;68.00;;;;;;4949671;28;20038;-73
2022/07/21 06:28:53;;;;;;;6.68;4.93;;;22.70;67.80;;;;;;4974905;28;20067;-73
2022/07/21 06:31:19;;;;;;;9.57;6.72;;;22.80;67.60;;;;;;4937808;28;20085;-72
2022/07/21 06:33:44;;;;;;;9.05;7.05;;;22.80;67.60;;;;;;4959933;28;20412;-72
2022/07/21 06:36:10;;;;;;;8.40;5.95;;;22.90;67.60;;;;;;4948937;28;20078;-71
2022/07/21 06:38:35;;;;;;;6.30;5.70;;;22.90;67.40;;;;;;4966969;28;20508;-72
2022/07/21 06:41:01;;;;;;;8.95;6.97;;;23.00;67.20;;;;;;4930698;28;20113;-72
2022/07/21 06:43:27;;;;;;;11.70;6.53;;;23.00;67.10;;;;;;4929437;28;20492;-72
2022/07/21 06:45:52;;;;;;;7.90;6.35;;;23.10;67.00;;;;;;4954436;28;20035;-74
2022/07/21 06:48:18;;;;;;;7.57;6.20;;;23.20;67.00;;;;;;4927758;28;20120;-72
2022/07/21 06:50:43;;;;;;;7.45;6.15;;;23.20;66.80;;;;;;4930771;28;20030;-72
2022/07/21 06:53:09;;;;;;;8.82;6.22;;;23.30;67.50;;;;;;4966715;28;20030;-74
2022/07/21 06:55:35;;;;;;;7.75;6.07;;;23.40;66.60;;;;;;4990041;28;20042;-71
2022/07/21 06:58:13;;;;;;;9.20;5.82;;;23.50;66.40;;;;;;4957947;28;20560;-72
2022/07/21 07:00:39;;;;;;;5.60;5.10;;;23.60;66.40;;;;;;4970074;28;20423;-73
2022/07/21 07:03:05;;;;;;;7.80;5.88;;;23.70;65.90;;;;;;4979123;28;20817;-72
2022/07/21 07:05:30;;;;;;;6.20;5.28;;;23.80;65.80;;;;;;4974205;28;20104;-72
2022/07/21 07:07:56;;;;;;;7.18;5.25;;;23.80;65.40;;;;;;4964203;28;20092;-71
2022/07/21 07:10:22;;;;;;;7.50;5.15;;;23.80;65.20;;;;;;4969167;28;20041;-72
2022/07/21 07:12:47;;;;;;;5.38;4.75;;;23.80;64.90;;;;;;4966233;28;20537;-72
2022/07/21 07:15:13;;;;;;;6.40;5.57;;;23.80;65.70;;;;;;4964797;28;20075;-73
2022/07/21 07:17:38;;;;;;;6.32;5.07;;;23.90;64.80;;;;;;4947894;28;20031;-74
2022/07/21 07:20:06;;;;;;;7.45;5.47;;;24.00;64.70;;;;;;4962160;28;20030;-72
2022/07/21 07:22:32;;;;;;;6.95;5.25;;;24.10;64.50;;;;;;4956703;28;20421;-73
2022/07/21 07:24:57;;;;;;;4.97;4.57;;;24.20;64.20;;;;;;4969225;28;20045;-72
2022/07/21 07:27:23;;;;;;;5.53;4.88;;;24.30;63.90;;;;;;4961912;28;20066;-72
2022/07/21 07:29:48;;;;;;;5.75;5.15;;;24.40;63.70;;;;;;4957607;28;20151;-72
2022/07/21 07:32:14;;;;;;;10.23;5.30;;;24.50;63.40;;;;;;4971972;28;20030;-72
2022/07/21 07:34:39;;;;;;;6.82;4.90;;;24.60;63.20;;;;;;4967577;28;20122;-72
2022/07/21 07:37:05;;;;;;;5.63;4.85;;;24.70;63.00;;;;;;4987810;28;20038;-73
2022/07/21 07:39:30;;;;;;;9.32;4.38;;;24.90;62.60;;;;;;4971106;28;20061;-72
2022/07/21 07:41:56;;;;;;;5.35;3.75;;;25.00;62.20;;;;;;4979016;28;20037;-71
2022/07/21 07:44:22;;;;;;;7.05;3.97;;;25.00;61.70;;;;;;4976112;28;20042;-73
2022/07/21 07:46:47;;;;;;;3.83;3.53;;;25.10;61.30;;;;;;4967093;28;20035;-73
2022/07/21 07:49:13;;;;;;;6.38;3.92;;;25.20;61.00;;;;;;4980470;28;20046;-74
2022/07/21 07:51:38;;;;;;;5.20;3.25;;;25.30;60.60;;;;;;4973489;28;20687;-73
2022/07/21 07:54:04;;;;;;;4.43;4.03;;;25.40;60.30;;;;;;4957118;28;20421;-74
2022/07/21 07:56:30;;;;;;;4.25;3.60;;;25.50;59.90;;;;;;4972034;28;20081;-74
2022/07/21 07:58:55;;;;;;;4.28;3.65;;;25.60;59.60;;;;;;4959208;28;20050;-73
2022/07/21 08:01:21;;;;;;;7.88;4.20;;;25.70;59.20;;;;;;4952953;28;20045;-73
2022/07/21 08:03:47;;;;;;;4.30;3.90;;;25.80;58.90;;;;;;4964673;28;20154;-73
2022/07/21 08:06:12;;;;;;;4.13;3.65;;;25.90;58.90;;;;;;4928978;28;20673;-72
2022/07/21 08:08:38;;;;;;;7.30;4.03;;;26.00;58.50;;;;;;4966976;28;20074;-72
2022/07/21 08:11:03;;;;;;;4.32;3.60;;;26.00;58.20;;;;;;4977595;28;20105;-72
2022/07/21 08:13:29;;;;;;;4.20;3.80;;;26.10;58.00;;;;;;4979371;28;20026;-72
2022/07/21 08:15:55;;;;;;;5.47;4.00;;;26.20;57.80;;;;;;4986628;28;20042;-73
2022/07/21 08:18:20;;;;;;;8.05;4.72;;;26.30;58.20;;;;;;4966812;28;20581;-73
2022/07/21 08:20:46;;;;;;;5.18;4.03;;;26.30;57.30;;;;;;4972038;28;20046;-73
2022/07/21 08:23:11;;;;;;;5.00;4.30;;;26.40;57.10;;;;;;4993611;28;20039;-73
2022/07/21 08:25:37;;;;;;;5.35;4.45;;;26.50;56.80;;;;;;4993896;28;20752;-72
2022/07/21 08:28:03;;;;;;;7.43;4.35;;;26.60;56.70;;;;;;4962642;28;20034;-73
2022/07/21 08:30:29;;;;;;;4.32;3.90;;;26.60;56.40;;;;;;4974084;28;20117;-73
2022/07/21 08:32:55;;;;;;;18.75;5.07;;;26.70;56.20;;;;;;4965954;28;20046;-73
2022/07/21 08:35:20;;;;;;;5.28;4.22;;;26.70;56.10;;;;;;4974826;28;20025;-72
2022/07/21 08:37:56;;;;;;;6.07;4.60;;;26.70;56.00;;;;;;4978605;28;20114;-73
2022/07/21 08:40:23;;;;;;;9.52;4.82;;;26.80;55.90;;;;;;4947553;28;20045;-72
2022/07/21 08:42:48;;;;;;;6.35;4.53;;;26.90;55.80;;;;;;4955768;28;20103;-72
2022/07/21 08:45:14;;;;;;;9.38;4.63;;;26.90;55.70;;;;;;4971675;28;20050;-74
2022/07/21 08:47:39;;;;;;;6.18;4.47;;;27.00;55.50;;;;;;5010993;28;20115;-73
2022/07/21 08:50:06;;;;;;;6.72;3.97;;;27.10;55.40;;;;;;4970224;28;20041;-73
2022/07/21 08:52:32;;;;;;;5.22;3.80;;;27.00;55.00;;;;;;4961514;28;20038;-73
2022/07/21 08:54:57;;;;;;;5.00;4.10;;;27.10;54.90;;;;;;4980264;28;20039;-72
2022/07/21 08:57:23;;;;;;;5.57;4.15;;;27.10;54.60;;;;;;4960684;28;20241;-73
2022/07/21 08:59:48;;;;;;;4.53;3.45;;;27.20;54.50;;;;;;4960640;28;20062;-72
2022/07/21 09:02:31;;;;;;;7.07;4.18;;;27.30;54.40;;;;;;4967598;28;20068;-73
2022/07/21 09:04:56;;;;;;;5.78;3.88;;;27.30;53.80;;;;;;4986021;28;20030;-73
2022/07/21 09:07:23;;;;;;;6.45;4.63;;;27.30;54.00;;;;;;4985433;28;20408;-72
2022/07/21 09:09:56;;;;;;;8.05;4.70;;;27.40;53.90;;;;;;4977691;28;20042;-73
2022/07/21 09:12:21;;;;;;;6.20;3.90;;;27.40;53.70;;;;;;4994824;28;20109;-72
2022/07/21 09:14:47;;;;;;;6.45;3.92;;;27.40;53.70;;;;;;4961804;28;20043;-73
2022/07/21 09:17:12;;;;;;;3.70;3.20;;;27.60;53.50;;;;;;4981399;28;20049;-73
2022/07/21 09:19:38;;;;;;;4.55;3.67;;;27.80;53.30;;;;;;4990817;28;21041;-73
2022/07/21 09:22:12;;;;;;;4.78;3.90;;;27.90;52.80;;;;;;4987455;28;20161;-74
2022/07/21 09:24:39;;;;;;;4.07;3.33;;;27.90;52.30;;;;;;4975458;28;21465;-74
2022/07/21 09:27:06;;;;;;;4.15;3.10;;;27.90;52.30;;;;;;4967286;28;20033;-72
2022/07/21 09:29:51;;;;;;;4.93;3.47;;;28.00;52.20;;;;;;4998049;28;20426;-73
2022/07/21 09:32:20;;;;;;;5.35;3.67;;;28.10;51.90;;;;;;4998869;28;20185;-73
2022/07/21 09:34:46;;;;;;;5.32;3.80;;;28.30;51.90;;;;;;4981973;28;20058;-73
2022/07/21 09:37:12;;;;;;;5.50;3.13;;;28.50;51.80;;;;;;4945632;28;20037;-73
2022/07/21 09:39:46;;;;;;;3.90;3.60;;;28.70;51.40;;;;;;4996644;28;20967;-72
2022/07/21 09:42:22;;;;;;;4.15;3.20;;;28.80;50.90;;;;;;4978827;28;20046;-73
2022/07/21 09:44:53;;;;;;;3.80;3.40;;;28.90;50.50;;;;;;4962976;28;20039;-73
2022/07/21 09:47:19;;;;;;;;;;;28.90;50.50;;;;;;4969328;28;20503;-75
2022/07/21 09:49:45;;;;;;;8.27;3.50;;;28.80;50.50;;;;;;4991996;28;19958;-74
2022/07/21 09:52:21;;;;;;;7.15;3.75;;;28.90;50.50;;;;;;4983540;28;20054;-75
2022/07/21 09:54:46;;;;;;;4.03;3.20;;;29.00;50.30;;;;;;4966697;28;20469;-72
2022/07/21 09:57:12;;;;;;;3.28;2.97;;;29.10;50.30;;;;;;4965600;28;20081;-72
2022/07/21 09:59:38;;;;;;;3.50;3.10;;;29.40;50.00;;;;;;4976372;28;20565;-74
2022/07/21 10:02:04;;;;;;;3.63;2.90;;;29.50;49.40;;;;;;4989192;28;20069;-74
2022/07/21 10:04:30;;;;;;;4.90;2.75;;;29.70;49.10;;;;;;4972484;28;20033;-73
2022/07/21 10:06:55;;;;;;;8.43;3.15;;;29.80;48.60;;;;;;4976092;28;20042;-74
2022/07/21 10:09:21;;;;;;;5.70;2.70;;;30.00;48.40;;;;;;4986084;28;20049;-75
2022/07/21 10:11:46;;;;;;;3.88;2.50;;;30.00;48.10;;;;;;4973367;28;20050;-73
2022/07/21 10:14:12;;;;;;;3.25;2.33;;;30.10;47.90;;;;;;4975371;28;20057;-75
2022/07/21 10:16:38;;;;;;;4.15;2.65;;;30.00;47.60;;;;;;4967222;28;20525;-73
2022/07/21 10:19:22;;;;;;;3.15;2.85;;;30.00;47.40;;;;;;4945580;28;20037;-73
2022/07/21 10:22:21;;;;;;;3.65;2.80;;;30.00;47.30;;;;;;4993632;28;20659;-72
2022/07/21 10:24:47;;;;;;;3.30;2.53;;;29.90;46.70;;;;;;4999937;28;20035;-73
2022/07/21 10:27:13;;;;;;;3.20;2.75;;;29.80;47.10;;;;;;4995785;28;20088;-73
2022/07/21 10:29:47;;;;;;;4.93;2.45;;;29.90;47.20;;;;;;4960215;28;20124;-73
2022/07/21 10:32:14;;;;;;;2.78;2.55;;;30.00;46.90;;;;;;4972330;28;20043;-73
2022/07/21 10:34:40;;;;;;;4.28;3.05;;;30.00;46.90;;;;;;4966837;28;20067;-72
2022/07/21 10:37:05;;;;;;;3.03;2.63;;;30.00;46.70;;;;;;4967546;28;20550;-73
2022/07/21 10:39:32;;;;;;;6.72;3.50;;;30.00;46.60;;;;;;4986139;28;20117;-74
2022/07/21 10:42:00;;;;;;;3.33;3.00;;;30.00;46.50;;;;;;4961547;28;20845;-73
2022/07/21 10:44:30;;;;;;;3.25;2.72;;;30.00;46.40;;;;;;4954853;28;20054;-75
2022/07/21 10:47:07;;;;;;;4.18;3.05;;;30.10;46.20;;;;;;4987816;28;20049;-72
2022/07/21 10:49:53;;;;;;;4.18;2.95;;;30.30;45.40;;;;;;4990689;28;20041;-73
2022/07/21 10:52:41;;;;;;;3.33;2.58;;;30.40;45.20;;;;;;4974768;28;20065;-73
2022/07/21 10:55:10;;;;;;;2.97;2.00;;;30.60;44.50;;;;;;4996744;28;20067;-75
2022/07/21 10:57:42;;;;;;;4.00;2.55;;;30.80;44.80;;;;;;4974858;28;20050;-73
2022/07/21 11:00:22;;;;;;;4.25;2.53;;;31.00;44.50;;;;;;4952560;28;20045;-74
2022/07/21 11:02:58;;;;;;;2.70;2.17;;;31.20;43.40;;;;;;4952020;28;20074;-72
2022/07/21 11:05:24;;;;;;;6.13;2.80;;;31.30;43.60;;;;;;4953134;28;20507;-72
2022/07/21 11:08:21;;;;;;;3.08;2.47;;;31.40;43.20;;;;;;4958408;28;20027;-71
2022/07/21 11:10:53;;;;;;;2.58;2.30;;;31.30;42.00;;;;;;4971003;28;20170;-72
2022/07/21 11:13:21;;;;;;;2.63;2.40;;;31.30;42.50;;;;;;4965997;28;20068;-73
2022/07/21 11:15:47;;;;;;;2.80;2.35;;;31.20;42.70;;;;;;4957776;28;20054;-73
2022/07/21 11:18:20;;;;;;;5.30;3.00;;;31.20;42.60;;;;;;4969642;28;20034;-73
2022/07/21 11:21:08;;;;;;;4.75;2.28;;;31.20;42.50;;;;;;4943990;28;20046;-72
2022/07/21 11:23:47;;;;;;;3.80;2.65;;;31.20;42.40;;;;;;4974839;28;20069;-72
2022/07/21 11:26:16;;;;;;;7.80;2.45;;;31.20;42.70;;;;;;4983680;28;20121;-72
2022/07/21 11:28:42;;;;;;;3.00;2.30;;;31.30;42.80;;;;;;4962577;28;20039;-73
2022/07/21 11:31:09;;;;;;;3.03;2.35;;;31.30;42.70;;;;;;4974421;28;20034;-71
2022/07/21 11:33:37;;;;;;;4.95;2.50;;;31.30;42.50;;;;;;4996126;28;20057;-72
2022/07/21 11:36:03;;;;;;;3.67;2.30;;;31.30;42.40;;;;;;4988869;28;20770;-73
2022/07/21 11:38:29;;;;;;;3.05;2.72;;;31.30;42.40;;;;;;4977572;28;20427;-74
2022/07/21 11:41:15;;;;;;;3.78;2.40;;;31.30;42.30;;;;;;4993272;28;20042;-73
2022/07/21 11:43:41;;;;;;;2.40;2.20;;;31.30;41.70;;;;;;4969506;28;20039;-72
2022/07/21 11:46:07;;;;;;;4.18;2.20;;;31.40;42.10;;;;;;4976791;28;20511;-71
2022/07/21 11:48:32;;;;;;;6.60;2.70;;;31.50;41.90;;;;;;4978659;28;20072;-73
2022/07/21 11:51:07;;;;;;;5.13;2.88;;;31.70;41.80;;;;;;4976074;28;20121;-71
2022/07/21 11:53:33;;;;;;;3.40;2.38;;;31.90;41.20;;;;;;4957942;28;20653;-72
2022/07/21 11:55:58;;;;;;;2.78;2.42;;;32.00;41.20;;;;;;4973634;28;20651;-73
2022/07/21 11:58:24;;;;;;;4.80;2.65;;;32.20;41.00;;;;;;4977926;28;20037;-72
2022/07/21 12:01:11;;;;;;;2.80;2.17;;;32.40;40.60;;;;;;4965499;28;20069;-72
2022/07/21 12:03:47;;;;;;;2.85;2.60;;;32.50;40.30;;;;;;4985141;28;20046;-72
2022/07/21 12:06:13;;;;;;;3.78;2.40;;;32.70;39.50;;;;;;4987014;28;20035;-72
2022/07/21 12:08:39;;;;;;;2.58;2.25;;;32.80;39.70;;;;;;4967873;28;20467;-72
2022/07/21 12:11:06;;;;;;;3.58;2.40;;;33.00;39.50;;;;;;4967486;28;20095;-73
2022/07/21 12:13:57;;;;;;;2.63;2.42;;;33.20;39.30;;;;;;4933671;28;20035;-72
2022/07/21 12:16:23;;;;;;;3.70;2.35;;;33.30;38.70;;;;;;4964023;28;20030;-73
2022/07/21 12:18:49;;;;;;;2.63;2.42;;;33.60;38.90;;;;;;4968146;28;20034;-71
2022/07/21 12:21:14;;;;;;;3.47;2.63;;;33.70;38.60;;;;;;4973768;28;20046;-72
2022/07/21 12:23:40;;;;;;;3.58;2.80;;;33.80;38.20;;;;;;4975518;28;20160;-73
2022/07/21 12:26:05;;;;;;;14.77;4.00;;;33.90;37.80;;;;;;4942016;28;20105;-71
2022/07/21 12:28:53;;;;;;;3.17;2.80;;;33.80;37.70;;;;;;4971250;28;20062;-71
2022/07/21 12:31:23;;;;;;;2.47;2.28;;;33.90;37.10;;;;;;4963086;28;20709;-72
2022/07/21 12:33:55;;;;;;;2.72;2.50;;;34.10;37.50;;;;;;4967693;28;20125;-73
2022/07/21 12:36:21;;;;;;;3.42;2.47;;;34.30;37.40;;;;;;4963809;28;20034;-72
2022/07/21 12:38:48;;;;;;;3.53;2.75;;;34.40;37.20;;;;;;4959277;28;20026;-72
2022/07/21 12:41:15;;;;;;;4.18;2.97;;;34.50;37.00;;;;;;4948950;28;20074;-72
2022/07/21 12:43:40;;;;;;;3.30;2.85;;;34.60;36.70;;;;;;4969528;28;20049;-72
2022/07/21 12:46:18;;;;;;;3.63;2.80;;;34.70;36.50;;;;;;4966079;28;20057;-73
2022/07/21 12:48:44;;;;;;;2.95;2.50;;;34.70;36.00;;;;;;4973417;28;20046;-72